createdAt,value
2017-05-27T00:02:28.203Z,18.40
2017-05-27T00:04:57.243Z,18.40
2017-05-27T00:07:26.299Z,18.40
2017-05-27T00:09:55.350Z,18.30
2017-05-27T00:12:24.402Z,18.30
2017-05-27T00:14:53.455Z,18.30
2017-05-27T00:17:22.510Z,18.20
2017-05-27T00:19:51.557Z,18.30
2017-05-27T00:22:20.599Z,18.30
2017-05-27T00:24:49.648Z,18.20
2017-05-27T00:27:18.702Z,18.20
2017-05-27T00:29:47.759Z,18.20
2017-05-27T00:32:16.067Z,18.20
2017-05-27T00:34:45.119Z,18.20
2017-05-27T00:37:14.179Z,18.20
2017-05-27T00:39:43.234Z,18.10
2017-05-27T00:42:12.271Z,18.10
2017-05-27T00:44:41.326Z,18.10
2017-05-27T00:47:10.381Z,18.10
2017-05-27T00:49:39.462Z,18.10
2017-05-27T00:52:08.527Z,18.10
2017-05-27T00:54:37.587Z,18.10
2017-05-27T00:57:06.616Z,18.00
2017-05-27T00:59:35.657Z,18.00
2017-05-27T01:02:04.709Z,18.00
2017-05-27T01:04:33.748Z,18.00
2017-05-27T01:07:02.808Z,17.90
2017-05-27T01:09:31.871Z,17.90
2017-05-27T01:12:00.913Z,17.90
2017-05-27T01:14:29.953Z,17.90
2017-05-27T01:16:59.009Z,17.80
2017-05-27T01:19:28.049Z,17.90
2017-05-27T01:21:57.107Z,17.80
2017-05-27T01:24:26.160Z,17.80
2017-05-27T01:26:55.211Z,17.90
2017-05-27T01:29:24.269Z,17.70
2017-05-27T01:31:53.334Z,17.70
2017-05-27T01:34:22.373Z,17.70
2017-05-27T01:36:51.428Z,17.70
2017-05-27T01:39:20.485Z,17.60
2017-05-27T01:41:49.535Z,17.60
2017-05-27T01:44:18.591Z,17.60
2017-05-27T01:46:47.655Z,17.60
2017-05-27T01:49:16.692Z,17.60
2017-05-27T01:51:45.751Z,17.60
2017-05-27T01:54:14.817Z,17.50
2017-05-27T01:56:43.849Z,17.50
2017-05-27T01:59:12.889Z,17.50
2017-05-27T02:01:42.021Z,17.50
2017-05-27T02:04:11.032Z,17.50
2017-05-27T02:06:40.077Z,17.50
2017-05-27T02:09:09.238Z,17.50
2017-05-27T02:11:38.301Z,17.40
2017-05-27T02:14:08.131Z,17.40
2017-05-27T02:16:37.184Z,17.40
2017-05-27T02:19:06.224Z,17.40
2017-05-27T02:21:35.276Z,17.40
2017-05-27T02:24:04.334Z,17.40
2017-05-27T02:26:33.372Z,17.40
2017-05-27T02:29:02.422Z,17.30
2017-05-27T02:31:31.477Z,17.30
2017-05-27T02:34:00.516Z,17.30
2017-05-27T02:36:29.582Z,17.20
2017-05-27T02:38:58.667Z,17.20
2017-05-27T02:41:27.719Z,17.20
2017-05-27T02:43:56.783Z,17.20
2017-05-27T02:46:25.851Z,17.20
2017-05-27T02:48:54.904Z,17.20
2017-05-27T02:51:23.954Z,17.20
2017-05-27T02:53:53.010Z,17.10
2017-05-27T02:56:21.295Z,17.10
2017-05-27T02:58:50.342Z,17.10
2017-05-27T03:01:19.409Z,17.10
2017-05-27T03:03:48.441Z,17.10
2017-05-27T03:06:17.493Z,17.10
2017-05-27T03:08:46.559Z,17.00
2017-05-27T03:11:15.597Z,17.00
2017-05-27T03:13:44.647Z,17.00
2017-05-27T03:16:13.710Z,17.00
2017-05-27T03:18:42.762Z,17.00
2017-05-27T03:21:11.831Z,17.00
2017-05-27T03:23:40.884Z,17.00
2017-05-27T03:26:09.941Z,17.00
2017-05-27T03:28:38.995Z,17.00
2017-05-27T03:31:08.053Z,17.00
2017-05-27T03:33:37.093Z,16.90
2017-05-27T03:36:06.153Z,16.90
2017-05-27T03:38:35.220Z,16.90
2017-05-27T03:41:04.651Z,16.90
2017-05-27T03:43:33.706Z,16.90
2017-05-27T03:46:02.780Z,16.90
2017-05-27T03:48:31.968Z,16.90
2017-05-27T03:51:01.004Z,16.90
2017-05-27T03:53:30.085Z,16.90
2017-05-27T03:55:59.161Z,16.90
2017-05-27T03:58:28.220Z,16.90
2017-05-27T04:00:57.284Z,17.00
2017-05-27T04:03:26.352Z,17.00
2017-05-27T04:05:55.394Z,17.00
2017-05-27T04:08:24.478Z,16.90
2017-05-27T04:10:53.571Z,17.00
2017-05-27T04:13:22.589Z,17.00
2017-05-27T04:15:51.653Z,17.00
2017-05-27T04:18:20.689Z,17.00
2017-05-27T04:20:50.763Z,17.00
2017-05-27T04:23:19.820Z,17.10
2017-05-27T04:25:48.867Z,17.10
2017-05-27T04:28:17.920Z,17.20
2017-05-27T04:30:46.995Z,17.20
2017-05-27T04:33:16.036Z,17.20
2017-05-27T04:35:45.103Z,17.20
2017-05-27T04:38:14.178Z,17.30
2017-05-27T04:40:43.231Z,17.30
2017-05-27T04:43:12.287Z,17.30
2017-05-27T04:45:41.355Z,17.40
2017-05-27T04:48:10.423Z,17.40
2017-05-27T04:50:39.465Z,17.40
2017-05-27T04:53:08.522Z,17.50
2017-05-27T04:55:37.565Z,17.50
2017-05-27T04:58:06.601Z,17.60
2017-05-27T05:00:35.656Z,17.60
2017-05-27T05:03:04.767Z,17.60
2017-05-27T05:05:33.785Z,17.70
2017-05-27T05:08:02.844Z,17.80
2017-05-27T05:10:31.888Z,17.80
2017-05-27T05:13:00.948Z,17.90
2017-05-27T05:15:30.021Z,17.90
2017-05-27T05:17:59.060Z,18.00
2017-05-27T05:20:28.097Z,18.00
2017-05-27T05:22:57.153Z,18.10
2017-05-27T05:25:26.200Z,18.20
2017-05-27T05:27:55.240Z,18.20
2017-05-27T05:30:24.306Z,18.30
2017-05-27T05:32:53.363Z,18.40
2017-05-27T05:35:22.745Z,18.50
2017-05-27T05:37:51.816Z,18.50
2017-05-27T05:40:20.849Z,18.50
2017-05-27T05:42:49.902Z,18.60
2017-05-27T05:45:18.975Z,18.90
2017-05-27T05:47:48.031Z,18.80
2017-05-27T05:50:17.072Z,18.90
2017-05-27T05:52:46.151Z,18.90
2017-05-27T05:55:15.186Z,19.00
2017-05-27T05:57:44.224Z,19.10
2017-05-27T06:00:13.295Z,19.20
2017-05-27T06:02:42.334Z,19.30
2017-05-27T06:05:11.392Z,19.30
2017-05-27T06:07:40.456Z,19.40
2017-05-27T06:10:09.538Z,19.50
2017-05-27T06:12:38.574Z,19.60
2017-05-27T06:15:07.662Z,19.70
2017-05-27T06:17:36.697Z,19.70
2017-05-27T06:20:05.742Z,19.70
2017-05-27T06:22:34.796Z,19.80
2017-05-27T06:25:03.843Z,19.90
2017-05-27T06:27:32.886Z,20.00
2017-05-27T06:30:01.972Z,20.10
2017-05-27T06:32:31.000Z,20.20
2017-05-27T06:35:00.055Z,20.20
2017-05-27T06:37:29.125Z,20.30
2017-05-27T06:39:58.179Z,20.40
2017-05-27T06:42:27.236Z,20.40
2017-05-27T06:44:56.292Z,20.50
2017-05-27T06:47:25.329Z,20.60
2017-05-27T06:49:53.596Z,20.60
2017-05-27T06:52:22.680Z,20.70
2017-05-27T06:54:51.731Z,20.80
2017-05-27T06:57:20.783Z,20.90
2017-05-27T06:59:49.862Z,21.00
2017-05-27T07:02:18.914Z,21.00
2017-05-27T07:04:47.965Z,21.10
2017-05-27T07:07:17.023Z,21.10
2017-05-27T07:09:46.060Z,21.20
2017-05-27T07:12:15.119Z,21.30
2017-05-27T07:14:44.176Z,21.40
2017-05-27T07:17:13.217Z,21.40
2017-05-27T07:19:42.292Z,21.50
2017-05-27T07:22:11.354Z,21.60
2017-05-27T07:24:40.423Z,21.60
2017-05-27T07:27:09.574Z,21.60
2017-05-27T07:29:38.631Z,21.70
2017-05-27T07:32:07.679Z,21.70
2017-05-27T07:34:36.739Z,21.80
2017-05-27T07:37:05.798Z,21.90
2017-05-27T07:39:34.845Z,21.90
2017-05-27T07:42:03.899Z,21.90
2017-05-27T07:44:32.983Z,22.00
2017-05-27T07:47:02.035Z,22.10
2017-05-27T07:49:31.077Z,22.20
2017-05-27T07:52:00.151Z,22.30
2017-05-27T07:54:29.189Z,22.30
2017-05-27T07:56:58.236Z,22.30
2017-05-27T07:59:27.293Z,22.30
2017-05-27T08:01:56.334Z,22.40
2017-05-27T08:04:25.387Z,22.40
2017-05-27T08:06:54.455Z,22.50
2017-05-27T08:09:23.522Z,22.60
2017-05-27T08:11:52.533Z,22.60
2017-05-27T08:14:21.633Z,22.70
2017-05-27T08:16:50.696Z,22.80
2017-05-27T08:19:19.747Z,22.80
2017-05-27T08:21:48.799Z,23.00
2017-05-27T08:24:17.851Z,23.00
2017-05-27T08:26:46.900Z,23.10
2017-05-27T08:29:15.976Z,23.10
2017-05-27T08:31:45.020Z,23.20
2017-05-27T08:34:19.800Z,23.20
2017-05-27T08:36:48.851Z,23.30
2017-05-27T08:39:17.919Z,23.40
2017-05-27T08:41:46.988Z,23.50
2017-05-27T08:44:16.025Z,23.60
2017-05-27T08:46:45.070Z,23.70
2017-05-27T08:49:14.129Z,23.80
2017-05-27T08:51:43.213Z,23.80
2017-05-27T08:54:12.242Z,23.80
2017-05-27T08:56:41.311Z,23.90
2017-05-27T08:59:10.346Z,24.00
2017-05-27T09:01:39.390Z,24.00
2017-05-27T09:04:08.441Z,24.10
2017-05-27T09:06:37.488Z,24.20
2017-05-27T09:09:06.521Z,24.30
2017-05-27T09:11:35.586Z,24.40
2017-05-27T09:14:04.643Z,24.50
2017-05-27T09:16:33.694Z,24.50
2017-05-27T09:19:02.761Z,24.60
2017-05-27T09:21:31.811Z,24.60
2017-05-27T09:24:00.843Z,24.60
2017-05-27T09:26:29.900Z,24.70
2017-05-27T09:28:58.950Z,24.70
2017-05-27T09:31:27.981Z,24.80
2017-05-27T09:33:57.807Z,24.80
2017-05-27T09:36:26.841Z,24.80
2017-05-27T09:38:55.881Z,25.00
2017-05-27T09:41:24.951Z,25.10
2017-05-27T09:43:54.001Z,25.20
2017-05-27T09:46:23.047Z,25.20
2017-05-27T09:48:52.222Z,25.30
2017-05-27T09:51:21.260Z,25.30
2017-05-27T09:53:50.315Z,25.20
2017-05-27T09:56:19.395Z,25.30
2017-05-27T09:58:48.434Z,25.30
2017-05-27T10:01:18.429Z,25.40
2017-05-27T10:03:47.487Z,25.40
2017-05-27T10:06:16.554Z,25.50
2017-05-27T10:08:45.627Z,25.50
2017-05-27T10:11:14.679Z,25.50
2017-05-27T10:13:43.717Z,25.60
2017-05-27T10:16:12.787Z,25.70
2017-05-27T10:18:41.837Z,25.80
2017-05-27T10:21:10.885Z,25.80
2017-05-27T10:23:39.942Z,25.80
2017-05-27T10:26:08.981Z,25.80
2017-05-27T10:28:38.031Z,25.90
2017-05-27T10:31:07.081Z,26.00
2017-05-27T10:33:36.120Z,25.90
2017-05-27T10:36:05.172Z,26.00
2017-05-27T10:38:33.468Z,26.00
2017-05-27T10:41:02.502Z,26.00
2017-05-27T10:43:31.548Z,26.10
2017-05-27T10:46:00.615Z,26.20
2017-05-27T10:48:29.651Z,26.20
2017-05-27T10:50:58.700Z,26.20
2017-05-27T10:53:27.775Z,26.40
2017-05-27T10:55:56.809Z,26.40
2017-05-27T10:58:25.855Z,26.50
2017-05-27T11:00:54.908Z,26.50
2017-05-27T11:03:23.960Z,26.70
2017-05-27T11:05:53.006Z,26.70
2017-05-27T11:08:22.071Z,26.70
2017-05-27T11:10:51.122Z,26.80
2017-05-27T11:13:20.176Z,26.80
2017-05-27T11:15:49.240Z,26.80
2017-05-27T11:18:18.287Z,26.90
2017-05-27T11:20:47.335Z,27.00
2017-05-27T11:23:16.402Z,27.00
2017-05-27T11:25:45.484Z,27.00
2017-05-27T11:28:14.521Z,27.00
2017-05-27T11:30:43.591Z,27.00
2017-05-27T11:33:12.702Z,27.10
2017-05-27T11:35:41.711Z,27.10
2017-05-27T11:38:10.772Z,27.20
2017-05-27T11:40:39.823Z,27.20
2017-05-27T11:43:08.879Z,27.30
2017-05-27T11:45:37.951Z,27.30
2017-05-27T11:48:06.993Z,27.40
2017-05-27T11:50:36.033Z,27.40
2017-05-27T11:53:05.095Z,27.50
2017-05-27T11:55:34.147Z,27.60
2017-05-27T11:58:03.173Z,27.60
2017-05-27T12:00:32.239Z,27.70
2017-05-27T12:03:01.299Z,27.80
2017-05-27T12:05:30.360Z,27.80
2017-05-27T12:07:59.413Z,27.70
2017-05-27T12:10:28.448Z,27.90
2017-05-27T12:12:57.484Z,27.90
2017-05-27T12:15:26.676Z,28.00
2017-05-27T12:17:55.712Z,28.00
2017-05-27T12:20:24.810Z,28.10
2017-05-27T12:22:53.852Z,28.10
2017-05-27T12:25:22.903Z,28.10
2017-05-27T12:27:51.946Z,28.10
2017-05-27T12:30:21.023Z,28.10
2017-05-27T12:32:50.057Z,28.20
2017-05-27T12:35:19.100Z,28.30
2017-05-27T12:37:48.153Z,28.40
2017-05-27T12:40:17.219Z,28.40
2017-05-27T12:42:46.263Z,28.40
2017-05-27T12:45:15.465Z,28.30
2017-05-27T12:47:44.501Z,28.40
2017-05-27T12:50:13.558Z,28.40
2017-05-27T12:52:42.600Z,28.50
2017-05-27T12:55:11.654Z,28.50
2017-05-27T12:57:40.691Z,28.50
2017-05-27T13:00:09.755Z,28.60
2017-05-27T13:02:39.283Z,28.70
2017-05-27T13:05:08.321Z,28.70
2017-05-27T13:07:37.391Z,28.70
2017-05-27T13:10:06.513Z,28.70
2017-05-27T13:12:35.525Z,28.80
2017-05-27T13:15:04.640Z,28.80
2017-05-27T13:17:33.677Z,28.90
2017-05-27T13:20:02.722Z,29.00
2017-05-27T13:22:31.773Z,29.00
2017-05-27T13:25:00.821Z,29.10
2017-05-27T13:27:29.876Z,29.10
2017-05-27T13:29:59.391Z,29.20
2017-05-27T13:32:28.452Z,29.10
2017-05-27T13:34:57.493Z,29.20
2017-05-27T13:37:25.825Z,29.20
2017-05-27T13:39:54.864Z,29.30
2017-05-27T13:42:23.905Z,29.40
2017-05-27T13:44:52.987Z,29.50
2017-05-27T13:47:22.051Z,29.60
2017-05-27T13:49:51.091Z,29.50
2017-05-27T13:52:20.244Z,29.50
2017-05-27T13:54:49.285Z,29.60
2017-05-27T13:57:18.328Z,29.60
2017-05-27T13:59:48.491Z,29.60
2017-05-27T14:02:17.530Z,29.70
2017-05-27T14:04:46.647Z,29.70
2017-05-27T14:07:15.701Z,29.70
2017-05-27T14:12:23.001Z,29.90
2017-05-27T14:14:52.038Z,29.80
2017-05-27T14:17:21.249Z,29.90
2017-05-27T14:19:50.445Z,29.90
2017-05-27T14:22:19.481Z,29.90
2017-05-27T14:24:48.538Z,29.90
2017-05-27T14:27:17.607Z,29.90
2017-05-27T14:29:46.643Z,30.10
2017-05-27T14:32:15.681Z,30.00
2017-05-27T14:34:44.743Z,30.10
2017-05-27T14:37:13.776Z,30.10
2017-05-27T14:39:42.817Z,30.00
2017-05-27T14:42:11.876Z,30.10
2017-05-27T14:44:40.915Z,30.20
2017-05-27T14:47:09.219Z,30.20
2017-05-27T14:49:38.273Z,30.40
2017-05-27T14:52:07.336Z,30.40
2017-05-27T14:54:36.386Z,30.40
2017-05-27T14:57:05.465Z,30.40
2017-05-27T14:59:34.513Z,30.50
2017-05-27T15:02:03.545Z,30.60
2017-05-27T15:04:32.627Z,30.60
2017-05-27T15:07:01.661Z,30.60
2017-05-27T15:09:30.716Z,30.70
2017-05-27T15:11:59.776Z,30.80
2017-05-27T15:14:28.823Z,30.80
2017-05-27T15:16:57.918Z,30.80
2017-05-27T15:19:27.041Z,31.00
2017-05-27T15:21:56.124Z,31.00
2017-05-27T15:24:25.240Z,31.10
2017-05-27T15:26:54.302Z,31.20
2017-05-27T15:29:23.351Z,31.20
2017-05-27T15:31:52.403Z,31.30
2017-05-27T15:34:21.467Z,31.30
2017-05-27T15:36:50.517Z,31.30
2017-05-27T15:39:19.566Z,31.40
2017-05-27T15:41:48.617Z,31.40
2017-05-27T15:44:17.674Z,31.40
2017-05-27T15:46:46.709Z,31.50
2017-05-27T15:49:15.774Z,31.50
2017-05-27T15:51:44.808Z,31.50
2017-05-27T15:54:13.867Z,31.50
2017-05-27T15:56:42.994Z,31.60
2017-05-27T15:59:12.047Z,31.70
2017-05-27T16:01:41.110Z,31.80
2017-05-27T16:04:10.170Z,31.80
2017-05-27T16:06:39.227Z,31.90
2017-05-27T16:09:08.257Z,31.80
2017-05-27T16:11:37.343Z,31.80
2017-05-27T16:14:06.382Z,31.90
2017-05-27T16:16:35.445Z,31.80
2017-05-27T16:19:04.504Z,31.80
2017-05-27T16:21:33.542Z,31.80
2017-05-27T16:24:02.575Z,31.90
2017-05-27T16:26:31.649Z,32.00
2017-05-27T16:29:00.685Z,32.10
2017-05-27T16:31:29.743Z,32.20
2017-05-27T16:33:58.797Z,32.10
2017-05-27T16:36:27.842Z,32.20
2017-05-27T16:38:56.898Z,32.10
2017-05-27T16:41:26.135Z,32.00
2017-05-27T16:43:55.180Z,32.00
2017-05-27T16:46:24.242Z,32.10
2017-05-27T16:48:53.311Z,32.20
2017-05-27T16:51:22.348Z,32.20
2017-05-27T16:53:51.401Z,32.20
2017-05-27T16:56:20.449Z,32.20
2017-05-27T16:58:49.489Z,32.30
2017-05-27T17:01:18.550Z,32.20
2017-05-27T17:03:47.612Z,32.20
2017-05-27T17:06:16.660Z,32.30
2017-05-27T17:08:45.706Z,32.20
2017-05-27T17:11:14.767Z,32.20
2017-05-27T17:13:43.845Z,32.10
2017-05-27T17:16:12.893Z,32.00
2017-05-27T17:18:41.947Z,32.10
2017-05-27T17:21:10.995Z,32.10
2017-05-27T17:23:40.033Z,32.00
2017-05-27T17:26:09.089Z,32.00
2017-05-27T17:28:38.134Z,32.00
2017-05-27T17:31:07.183Z,32.20
2017-05-27T17:33:36.258Z,32.20
2017-05-27T17:36:05.302Z,32.10
2017-05-27T17:38:34.339Z,32.00
2017-05-27T17:41:03.403Z,32.10
2017-05-27T17:43:32.456Z,32.10
2017-05-27T17:46:01.508Z,32.00
2017-05-27T17:48:30.575Z,32.20
2017-05-27T17:50:59.606Z,32.10
2017-05-27T17:53:28.658Z,32.10
2017-05-27T17:55:57.723Z,32.10
2017-05-27T17:58:26.789Z,32.20
2017-05-27T18:00:55.835Z,32.20
2017-05-27T18:03:24.908Z,32.20
2017-05-27T18:05:53.941Z,32.00
2017-05-27T18:08:22.995Z,32.00
2017-05-27T18:10:52.087Z,31.90
2017-05-27T18:13:21.886Z,31.70
2017-05-27T18:15:50.182Z,31.70
2017-05-27T18:18:19.248Z,31.60
2017-05-27T18:20:48.296Z,31.50
2017-05-27T18:23:17.351Z,31.50
2017-05-27T18:25:46.397Z,31.40
2017-05-27T18:28:15.451Z,31.40
2017-05-27T18:30:44.500Z,31.30
2017-05-27T18:33:13.557Z,31.10
2017-05-27T18:35:42.602Z,30.80
2017-05-27T18:38:11.646Z,30.50
2017-05-27T18:40:40.705Z,30.30
2017-05-27T18:43:09.764Z,29.90
2017-05-27T18:45:38.796Z,29.70
2017-05-27T18:48:07.869Z,29.50
2017-05-27T18:50:36.919Z,29.20
2017-05-27T18:53:05.954Z,29.10
2017-05-27T18:55:35.009Z,28.90
2017-05-27T18:58:04.067Z,28.70
2017-05-27T19:00:33.119Z,28.50
2017-05-27T19:03:02.182Z,28.40
2017-05-27T19:05:31.221Z,28.20
2017-05-27T19:08:00.283Z,28.10
2017-05-27T19:10:29.334Z,27.80
2017-05-27T19:12:58.397Z,27.70
2017-05-27T19:15:27.427Z,27.50
2017-05-27T19:17:56.756Z,27.40
2017-05-27T19:20:25.819Z,27.20
2017-05-27T19:22:54.875Z,27.10
2017-05-27T19:25:23.928Z,27.00
2017-05-27T19:27:52.992Z,26.90
2017-05-27T19:30:22.043Z,26.80
2017-05-27T19:32:51.115Z,26.70
2017-05-27T19:35:20.145Z,26.60
2017-05-27T19:37:49.193Z,26.40
2017-05-27T19:40:17.578Z,26.40
2017-05-27T19:42:46.626Z,26.30
2017-05-27T19:45:15.661Z,26.20
2017-05-27T19:47:44.723Z,26.10
2017-05-27T19:50:13.806Z,26.00
2017-05-27T19:52:42.848Z,25.90
2017-05-27T19:55:11.905Z,25.80
2017-05-27T19:57:40.941Z,25.80
2017-05-27T20:00:09.989Z,25.70
2017-05-27T20:02:39.075Z,25.60
2017-05-27T20:05:08.126Z,25.50
2017-05-27T20:07:37.164Z,25.40
2017-05-27T20:10:06.229Z,25.40
2017-05-27T20:12:35.279Z,25.30
2017-05-27T20:15:04.313Z,25.30
2017-05-27T20:17:33.388Z,25.20
2017-05-27T20:20:02.435Z,25.10
2017-05-27T20:22:31.484Z,25.10
2017-05-27T20:25:00.595Z,25.00
2017-05-27T20:27:29.642Z,25.00
2017-05-27T20:29:58.745Z,24.90
2017-05-27T20:32:27.795Z,24.90
2017-05-27T20:34:56.876Z,24.80
2017-05-27T20:37:25.902Z,24.80
2017-05-27T20:39:55.155Z,24.80
2017-05-27T20:42:24.193Z,24.70
2017-05-27T20:44:53.241Z,24.70
2017-05-27T20:47:22.317Z,24.60
2017-05-27T20:49:51.344Z,24.60
2017-05-27T20:52:20.395Z,24.60
2017-05-27T20:54:49.478Z,24.50
2017-05-27T20:57:18.521Z,24.50
2017-05-27T20:59:47.637Z,24.40
2017-05-27T21:02:16.703Z,24.40
2017-05-27T21:04:45.721Z,24.30
2017-05-27T21:07:14.761Z,24.30
2017-05-27T21:09:43.835Z,24.20
2017-05-27T21:12:12.878Z,24.20
2017-05-27T21:14:41.915Z,24.20
2017-05-27T21:17:11.006Z,24.10
2017-05-27T21:19:40.057Z,24.10
2017-05-27T21:22:09.112Z,24.00
2017-05-27T21:24:38.190Z,24.00
2017-05-27T21:27:07.245Z,23.90
2017-05-27T21:29:36.302Z,23.90
2017-05-27T21:32:05.363Z,23.90
2017-05-27T21:34:34.424Z,23.80
2017-05-27T21:37:03.491Z,23.80
2017-05-27T21:39:32.541Z,23.70
2017-05-27T21:42:01.599Z,23.70
2017-05-27T21:44:30.642Z,23.70
2017-05-27T21:46:59.761Z,23.60
2017-05-27T21:49:28.811Z,23.60
2017-05-27T21:51:57.845Z,23.50
2017-05-27T21:54:26.907Z,23.50
2017-05-27T21:56:55.956Z,23.50
2017-05-27T21:59:25.004Z,23.40
2017-05-27T22:01:54.085Z,23.40
2017-05-27T22:04:23.127Z,23.40
2017-05-27T22:06:52.185Z,23.30
2017-05-27T22:09:21.255Z,23.30
2017-05-27T22:11:50.308Z,23.30
2017-05-27T22:14:20.251Z,23.30
2017-05-27T22:16:48.575Z,23.30
2017-05-27T22:19:17.623Z,23.20
2017-05-27T22:21:46.709Z,23.20
2017-05-27T22:24:15.779Z,23.20
2017-05-27T22:26:44.836Z,23.20
2017-05-27T22:29:13.895Z,23.10
2017-05-27T22:31:42.953Z,23.10
2017-05-27T22:34:12.014Z,23.00
2017-05-27T22:36:41.049Z,23.00
2017-05-27T22:39:10.109Z,23.00
2017-05-27T22:41:39.157Z,23.00
2017-05-27T22:44:08.198Z,22.90
2017-05-27T22:46:37.263Z,22.90
2017-05-27T22:49:05.537Z,22.90
2017-05-27T22:51:34.579Z,22.90
2017-05-27T22:54:03.667Z,22.90
2017-05-27T22:56:33.866Z,22.90
2017-05-27T22:59:02.140Z,22.80
2017-05-27T23:01:31.189Z,22.80
2017-05-27T23:04:00.237Z,22.80
2017-05-27T23:06:31.292Z,22.80
2017-05-27T23:09:00.335Z,22.70
2017-05-27T23:11:30.955Z,22.70
2017-05-27T23:14:00.661Z,22.70
2017-05-27T23:16:29.725Z,22.70
2017-05-27T23:18:58.793Z,22.70
2017-05-27T23:21:27.834Z,22.70
2017-05-27T23:23:56.927Z,22.70
2017-05-27T23:26:25.980Z,22.60
2017-05-27T23:28:55.014Z,22.60
2017-05-27T23:31:24.066Z,22.60
2017-05-27T23:33:53.136Z,22.60
2017-05-27T23:36:22.187Z,22.60
2017-05-27T23:38:51.249Z,22.60
2017-05-27T23:41:20.311Z,22.60
2017-05-27T23:43:49.349Z,22.50
2017-05-27T23:46:18.440Z,22.50
2017-05-27T23:48:47.481Z,22.50
2017-05-27T23:51:16.539Z,22.40
2017-05-27T23:53:45.607Z,22.40
2017-05-27T23:56:14.679Z,22.40
2017-05-27T23:58:43.712Z,22.40
